sensor_id;sensor_type;location;lat;lon;timestamp;P1;durP1;ratioP1;P2;durP2;ratioP2
22937;SDS011;11634;42.734;23.298;2024-01-30T00:01:56;6.77;;;4.57;;
22937;SDS011;11634;42.734;23.298;2024-01-30T00:04:21;6.57;;;4.37;;
22937;SDS011;11634;42.734;23.298;2024-01-30T00:06:47;4.73;;;3.93;;
22937;SDS011;11634;42.734;23.298;2024-01-30T00:09:13;6.07;;;4.33;;
22937;SDS011;11634;42.734;23.298;2024-01-30T00:11:39;5.40;;;4.33;;
22937;SDS011;11634;42.734;23.298;2024-01-30T00:14:05;5.70;;;4.37;;
22937;SDS011;11634;42.734;23.298;2024-01-30T00:16:31;5.73;;;4.20;;
22937;SDS011;11634;42.734;23.298;2024-01-30T00:18:56;7.60;;;4.73;;
22937;SDS011;11634;42.734;23.298;2024-01-30T00:21:22;7.57;;;4.80;;
22937;SDS011;11634;42.734;23.298;2024-01-30T00:23:48;6.13;;;4.50;;
22937;SDS011;11634;42.734;23.298;2024-01-30T00:26:14;5.70;;;4.60;;
22937;SDS011;11634;42.734;23.298;2024-01-30T00:28:40;7.87;;;5.10;;
22937;SDS011;11634;42.734;23.298;2024-01-30T00:31:06;14.83;;;5.00;;
22937;SDS011;11634;42.734;23.298;2024-01-30T00:33:32;5.90;;;4.57;;
22937;SDS011;11634;42.734;23.298;2024-01-30T00:35:58;6.00;;;4.47;;
22937;SDS011;11634;42.734;23.298;2024-01-30T00:38:24;8.17;;;4.63;;
22937;SDS011;11634;42.734;23.298;2024-01-30T00:40:50;6.93;;;4.80;;
22937;SDS011;11634;42.734;23.298;2024-01-30T00:43:15;6.30;;;4.67;;
22937;SDS011;11634;42.734;23.298;2024-01-30T00:45:43;5.83;;;4.47;;
22937;SDS011;11634;42.734;23.298;2024-01-30T00:48:09;7.50;;;4.53;;
22937;SDS011;11634;42.734;23.298;2024-01-30T00:50:34;5.40;;;4.27;;
22937;SDS011;11634;42.734;23.298;2024-01-30T00:53:00;7.17;;;4.93;;
22937;SDS011;11634;42.734;23.298;2024-01-30T00:55:26;6.30;;;4.00;;
22937;SDS011;11634;42.734;23.298;2024-01-30T00:57:52;6.33;;;4.43;;
22937;SDS011;11634;42.734;23.298;2024-01-30T01:00:18;7.10;;;3.80;;
22937;SDS011;11634;42.734;23.298;2024-01-30T01:02:46;6.37;;;4.33;;
22937;SDS011;11634;42.734;23.298;2024-01-30T01:05:11;5.47;;;3.07;;
22937;SDS011;11634;42.734;23.298;2024-01-30T01:07:37;5.47;;;3.80;;
22937;SDS011;11634;42.734;23.298;2024-01-30T01:10:03;4.87;;;3.47;;
22937;SDS011;11634;42.734;23.298;2024-01-30T01:12:29;5.00;;;3.37;;
22937;SDS011;11634;42.734;23.298;2024-01-30T01:14:55;5.00;;;3.40;;
22937;SDS011;11634;42.734;23.298;2024-01-30T01:17:20;6.17;;;4.00;;
22937;SDS011;11634;42.734;23.298;2024-01-30T01:19:46;4.27;;;3.60;;
22937;SDS011;11634;42.734;23.298;2024-01-30T01:22:12;5.73;;;4.00;;
22937;SDS011;11634;42.734;23.298;2024-01-30T01:24:38;4.37;;;3.40;;
22937;SDS011;11634;42.734;23.298;2024-01-30T01:27:04;4.77;;;3.33;;
22937;SDS011;11634;42.734;23.298;2024-01-30T01:29:31;5.77;;;3.40;;
22937;SDS011;11634;42.734;23.298;2024-01-30T01:31:57;4.43;;;2.93;;
22937;SDS011;11634;42.734;23.298;2024-01-30T01:34:24;5.03;;;3.23;;
22937;SDS011;11634;42.734;23.298;2024-01-30T01:36:49;2.70;;;2.30;;
22937;SDS011;11634;42.734;23.298;2024-01-30T01:39:16;5.20;;;3.47;;
22937;SDS011;11634;42.734;23.298;2024-01-30T01:41:42;3.20;;;2.57;;
22937;SDS011;11634;42.734;23.298;2024-01-30T01:44:08;4.23;;;3.20;;
22937;SDS011;11634;42.734;23.298;2024-01-30T01:46:34;2.63;;;2.23;;
22937;SDS011;11634;42.734;23.298;2024-01-30T01:49:00;4.73;;;3.70;;
22937;SDS011;11634;42.734;23.298;2024-01-30T01:51:31;6.03;;;3.57;;
22937;SDS011;11634;42.734;23.298;2024-01-30T01:53:58;5.60;;;3.87;;
22937;SDS011;11634;42.734;23.298;2024-01-30T01:56:29;6.33;;;4.30;;
22937;SDS011;11634;42.734;23.298;2024-01-30T01:58:55;3.73;;;2.63;;
22937;SDS011;11634;42.734;23.298;2024-01-30T02:01:33;5.53;;;4.07;;
22937;SDS011;11634;42.734;23.298;2024-01-30T02:04:02;7.53;;;4.13;;
22937;SDS011;11634;42.734;23.298;2024-01-30T02:06:28;7.57;;;4.23;;
22937;SDS011;11634;42.734;23.298;2024-01-30T02:08:54;5.60;;;4.07;;
22937;SDS011;11634;42.734;23.298;2024-01-30T02:11:20;5.73;;;4.40;;
22937;SDS011;11634;42.734;23.298;2024-01-30T02:13:47;5.10;;;3.83;;
22937;SDS011;11634;42.734;23.298;2024-01-30T02:16:13;7.20;;;4.50;;
22937;SDS011;11634;42.734;23.298;2024-01-30T02:18:38;5.60;;;4.10;;
22937;SDS011;11634;42.734;23.298;2024-01-30T02:21:11;3.07;;;2.07;;
22937;SDS011;11634;42.734;23.298;2024-01-30T02:23:37;4.83;;;3.53;;
22937;SDS011;11634;42.734;23.298;2024-01-30T02:26:04;6.17;;;4.50;;
22937;SDS011;11634;42.734;23.298;2024-01-30T02:28:30;5.43;;;3.60;;
22937;SDS011;11634;42.734;23.298;2024-01-30T02:30:56;3.67;;;2.70;;
22937;SDS011;11634;42.734;23.298;2024-01-30T02:33:21;5.47;;;3.93;;
22937;SDS011;11634;42.734;23.298;2024-01-30T02:35:47;4.27;;;2.93;;
22937;SDS011;11634;42.734;23.298;2024-01-30T02:38:15;4.40;;;3.33;;
22937;SDS011;11634;42.734;23.298;2024-01-30T02:40:41;3.80;;;3.03;;
22937;SDS011;11634;42.734;23.298;2024-01-30T02:43:06;4.03;;;2.63;;
22937;SDS011;11634;42.734;23.298;2024-01-30T02:45:32;4.83;;;3.10;;
22937;SDS011;11634;42.734;23.298;2024-01-30T02:47:58;2.90;;;1.90;;
22937;SDS011;11634;42.734;23.298;2024-01-30T02:50:23;6.20;;;2.80;;
22937;SDS011;11634;42.734;23.298;2024-01-30T02:52:49;3.43;;;2.33;;
22937;SDS011;11634;42.734;23.298;2024-01-30T02:55:15;1.77;;;1.20;;
22937;SDS011;11634;42.734;23.298;2024-01-30T02:57:43;4.03;;;2.70;;
22937;SDS011;11634;42.734;23.298;2024-01-30T03:00:09;2.77;;;2.00;;
22937;SDS011;11634;42.734;23.298;2024-01-30T03:02:35;4.90;;;3.63;;
22937;SDS011;11634;42.734;23.298;2024-01-30T03:05:02;3.07;;;2.53;;
22937;SDS011;11634;42.734;23.298;2024-01-30T03:07:29;3.53;;;2.57;;
22937;SDS011;11634;42.734;23.298;2024-01-30T03:09:55;2.47;;;1.90;;
22937;SDS011;11634;42.734;23.298;2024-01-30T03:12:21;4.37;;;2.67;;
22937;SDS011;11634;42.734;23.298;2024-01-30T03:14:47;3.60;;;2.67;;
22937;SDS011;11634;42.734;23.298;2024-01-30T03:17:12;3.57;;;2.60;;
22937;SDS011;11634;42.734;23.298;2024-01-30T03:19:38;3.70;;;2.67;;
22937;SDS011;11634;42.734;23.298;2024-01-30T03:22:04;3.17;;;2.50;;
22937;SDS011;11634;42.734;23.298;2024-01-30T03:24:30;3.07;;;2.03;;
22937;SDS011;11634;42.734;23.298;2024-01-30T03:26:56;3.10;;;2.70;;
22937;SDS011;11634;42.734;23.298;2024-01-30T03:29:21;3.97;;;1.80;;
22937;SDS011;11634;42.734;23.298;2024-01-30T03:31:47;2.77;;;1.83;;
22937;SDS011;11634;42.734;23.298;2024-01-30T03:34:13;3.43;;;2.23;;
22937;SDS011;11634;42.734;23.298;2024-01-30T03:36:39;3.70;;;2.60;;
22937;SDS011;11634;42.734;23.298;2024-01-30T03:39:04;1.70;;;1.23;;
22937;SDS011;11634;42.734;23.298;2024-01-30T03:41:31;3.80;;;2.60;;
22937;SDS011;11634;42.734;23.298;2024-01-30T03:43:57;3.30;;;1.97;;
22937;SDS011;11634;42.734;23.298;2024-01-30T03:46:23;2.60;;;2.00;;
22937;SDS011;11634;42.734;23.298;2024-01-30T03:48:49;3.40;;;2.40;;
22937;SDS011;11634;42.734;23.298;2024-01-30T03:51:15;3.13;;;2.57;;
22937;SDS011;11634;42.734;23.298;2024-01-30T03:53:41;3.20;;;1.97;;
22937;SDS011;11634;42.734;23.298;2024-01-30T03:56:08;2.43;;;1.93;;
22937;SDS011;11634;42.734;23.298;2024-01-30T03:58:35;3.67;;;2.93;;
22937;SDS011;11634;42.734;23.298;2024-01-30T04:01:01;5.80;;;2.17;;
22937;SDS011;11634;42.734;23.298;2024-01-30T04:03:27;4.80;;;2.97;;
22937;SDS011;11634;42.734;23.298;2024-01-30T04:05:53;5.87;;;2.70;;
22937;SDS011;11634;42.734;23.298;2024-01-30T04:08:19;3.53;;;2.90;;
22937;SDS011;11634;42.734;23.298;2024-01-30T04:10:44;3.43;;;2.70;;
22937;SDS011;11634;42.734;23.298;2024-01-30T04:13:10;4.00;;;2.90;;
22937;SDS011;11634;42.734;23.298;2024-01-30T04:15:36;2.70;;;2.20;;
22937;SDS011;11634;42.734;23.298;2024-01-30T04:18:02;3.30;;;2.30;;
22937;SDS011;11634;42.734;23.298;2024-01-30T04:20:27;3.80;;;2.80;;
22937;SDS011;11634;42.734;23.298;2024-01-30T04:22:54;3.10;;;2.47;;
22937;SDS011;11634;42.734;23.298;2024-01-30T04:25:20;3.63;;;2.50;;
22937;SDS011;11634;42.734;23.298;2024-01-30T04:27:45;3.40;;;2.50;;
22937;SDS011;11634;42.734;23.298;2024-01-30T04:30:11;3.83;;;2.83;;
22937;SDS011;11634;42.734;23.298;2024-01-30T04:32:37;3.33;;;2.63;;
22937;SDS011;11634;42.734;23.298;2024-01-30T04:35:03;3.93;;;2.97;;
22937;SDS011;11634;42.734;23.298;2024-01-30T04:37:29;6.60;;;4.10;;
22937;SDS011;11634;42.734;23.298;2024-01-30T04:39:54;5.50;;;3.43;;
22937;SDS011;11634;42.734;23.298;2024-01-30T04:42:20;5.03;;;3.43;;
22937;SDS011;11634;42.734;23.298;2024-01-30T04:44:49;5.23;;;3.60;;
22937;SDS011;11634;42.734;23.298;2024-01-30T04:47:15;6.03;;;4.00;;
22937;SDS011;11634;42.734;23.298;2024-01-30T04:49:40;5.43;;;3.33;;
22937;SDS011;11634;42.734;23.298;2024-01-30T04:52:09;5.33;;;3.60;;
22937;SDS011;11634;42.734;23.298;2024-01-30T04:54:35;4.83;;;3.77;;
22937;SDS011;11634;42.734;23.298;2024-01-30T04:57:01;7.63;;;4.70;;
22937;SDS011;11634;42.734;23.298;2024-01-30T04:59:27;6.47;;;3.70;;
22937;SDS011;11634;42.734;23.298;2024-01-30T05:01:53;6.23;;;4.50;;
22937;SDS011;11634;42.734;23.298;2024-01-30T05:04:19;5.93;;;3.73;;
22937;SDS011;11634;42.734;23.298;2024-01-30T05:06:45;4.33;;;2.63;;
22937;SDS011;11634;42.734;23.298;2024-01-30T05:09:11;3.00;;;2.50;;
22937;SDS011;11634;42.734;23.298;2024-01-30T05:11:40;4.87;;;3.13;;
22937;SDS011;11634;42.734;23.298;2024-01-30T05:14:07;4.50;;;3.33;;
22937;SDS011;11634;42.734;23.298;2024-01-30T05:16:34;5.50;;;3.60;;
22937;SDS011;11634;42.734;23.298;2024-01-30T05:18:59;5.83;;;3.27;;
22937;SDS011;11634;42.734;23.298;2024-01-30T05:21:25;4.77;;;3.10;;
22937;SDS011;11634;42.734;23.298;2024-01-30T05:23:51;4.20;;;3.27;;
22937;SDS011;11634;42.734;23.298;2024-01-30T05:26:17;5.97;;;3.23;;
22937;SDS011;11634;42.734;23.298;2024-01-30T05:28:43;5.53;;;3.63;;
22937;SDS011;11634;42.734;23.298;2024-01-30T05:31:11;3.53;;;3.03;;
22937;SDS011;11634;42.734;23.298;2024-01-30T05:33:37;5.63;;;3.03;;
22937;SDS011;11634;42.734;23.298;2024-01-30T05:36:03;5.23;;;2.90;;
22937;SDS011;11634;42.734;23.298;2024-01-30T05:38:29;3.23;;;2.70;;
22937;SDS011;11634;42.734;23.298;2024-01-30T05:40:55;5.03;;;3.33;;
22937;SDS011;11634;42.734;23.298;2024-01-30T05:43:23;3.87;;;2.93;;
22937;SDS011;11634;42.734;23.298;2024-01-30T05:45:49;4.70;;;2.97;;
22937;SDS011;11634;42.734;23.298;2024-01-30T05:48:14;3.63;;;2.37;;
22937;SDS011;11634;42.734;23.298;2024-01-30T05:50:40;2.87;;;2.27;;
22937;SDS011;11634;42.734;23.298;2024-01-30T05:53:06;3.20;;;1.10;;
22937;SDS011;11634;42.734;23.298;2024-01-30T05:55:32;2.83;;;1.90;;
22937;SDS011;11634;42.734;23.298;2024-01-30T05:57:57;1.93;;;1.63;;
22937;SDS011;11634;42.734;23.298;2024-01-30T06:00:23;3.20;;;2.43;;
22937;SDS011;11634;42.734;23.298;2024-01-30T06:02:49;4.47;;;2.27;;
22937;SDS011;11634;42.734;23.298;2024-01-30T06:05:14;3.87;;;2.77;;
22937;SDS011;11634;42.734;23.298;2024-01-30T06:07:40;2.47;;;1.50;;
22937;SDS011;11634;42.734;23.298;2024-01-30T06:10:06;3.87;;;2.53;;
22937;SDS011;11634;42.734;23.298;2024-01-30T06:12:34;6.30;;;3.50;;
22937;SDS011;11634;42.734;23.298;2024-01-30T06:15:00;4.77;;;3.03;;
22937;SDS011;11634;42.734;23.298;2024-01-30T06:17:26;4.97;;;3.03;;
22937;SDS011;11634;42.734;23.298;2024-01-30T06:19:52;2.97;;;2.07;;
22937;SDS011;11634;42.734;23.298;2024-01-30T06:22:17;3.90;;;2.40;;
22937;SDS011;11634;42.734;23.298;2024-01-30T06:24:43;1.83;;;1.63;;
22937;SDS011;11634;42.734;23.298;2024-01-30T06:27:10;2.07;;;1.87;;
22937;SDS011;11634;42.734;23.298;2024-01-30T06:29:36;1.93;;;1.40;;
22937;SDS011;11634;42.734;23.298;2024-01-30T06:32:02;3.03;;;1.53;;
22937;SDS011;11634;42.734;23.298;2024-01-30T06:34:27;3.80;;;2.50;;
22937;SDS011;11634;42.734;23.298;2024-01-30T06:36:53;4.03;;;2.20;;
22937;SDS011;11634;42.734;23.298;2024-01-30T06:39:19;3.67;;;2.40;;
22937;SDS011;11634;42.734;23.298;2024-01-30T06:41:44;3.97;;;2.63;;
22937;SDS011;11634;42.734;23.298;2024-01-30T06:44:12;5.57;;;2.37;;
22937;SDS011;11634;42.734;23.298;2024-01-30T06:46:38;3.63;;;2.80;;
22937;SDS011;11634;42.734;23.298;2024-01-30T06:49:04;2.83;;;2.37;;
22937;SDS011;11634;42.734;23.298;2024-01-30T06:51:30;3.93;;;2.73;;
22937;SDS011;11634;42.734;23.298;2024-01-30T06:53:56;4.23;;;3.00;;
22937;SDS011;11634;42.734;23.298;2024-01-30T06:56:21;3.97;;;3.30;;
22937;SDS011;11634;42.734;23.298;2024-01-30T06:58:48;6.10;;;2.73;;
22937;SDS011;11634;42.734;23.298;2024-01-30T07:01:14;3.13;;;2.20;;
22937;SDS011;11634;42.734;23.298;2024-01-30T07:03:41;4.83;;;2.40;;
22937;SDS011;11634;42.734;23.298;2024-01-30T07:06:07;3.93;;;2.70;;
22937;SDS011;11634;42.734;23.298;2024-01-30T07:08:33;4.67;;;3.13;;
22937;SDS011;11634;42.734;23.298;2024-01-30T07:10:59;3.33;;;2.60;;
22937;SDS011;11634;42.734;23.298;2024-01-30T07:13:24;3.07;;;2.67;;
22937;SDS011;11634;42.734;23.298;2024-01-30T07:15:50;2.77;;;1.93;;
22937;SDS011;11634;42.734;23.298;2024-01-30T07:18:16;4.20;;;2.80;;
22937;SDS011;11634;42.734;23.298;2024-01-30T07:20:42;4.00;;;2.73;;
22937;SDS011;11634;42.734;23.298;2024-01-30T07:23:14;3.53;;;2.40;;
22937;SDS011;11634;42.734;23.298;2024-01-30T07:25:45;4.07;;;2.23;;
22937;SDS011;11634;42.734;23.298;2024-01-30T07:28:14;3.07;;;1.80;;
22937;SDS011;11634;42.734;23.298;2024-01-30T07:30:43;4.17;;;2.50;;
22937;SDS011;11634;42.734;23.298;2024-01-30T07:33:09;2.23;;;1.73;;
22937;SDS011;11634;42.734;23.298;2024-01-30T07:35:35;3.90;;;3.00;;
22937;SDS011;11634;42.734;23.298;2024-01-30T07:38:01;2.80;;;2.27;;
22937;SDS011;11634;42.734;23.298;2024-01-30T07:40:29;4.30;;;2.53;;
22937;SDS011;11634;42.734;23.298;2024-01-30T07:42:55;2.97;;;1.77;;
22937;SDS011;11634;42.734;23.298;2024-01-30T07:45:22;4.30;;;1.83;;
22937;SDS011;11634;42.734;23.298;2024-01-30T07:47:50;4.30;;;2.70;;
22937;SDS011;11634;42.734;23.298;2024-01-30T07:50:16;2.93;;;2.30;;
22937;SDS011;11634;42.734;23.298;2024-01-30T07:52:42;3.87;;;2.20;;
22937;SDS011;11634;42.734;23.298;2024-01-30T07:55:09;4.93;;;2.90;;
22937;SDS011;11634;42.734;23.298;2024-01-30T07:57:59;3.03;;;2.10;;
22937;SDS011;11634;42.734;23.298;2024-01-30T08:00:25;4.10;;;2.07;;
22937;SDS011;11634;42.734;23.298;2024-01-30T08:02:51;6.43;;;4.17;;
22937;SDS011;11634;42.734;23.298;2024-01-30T08:05:19;9.07;;;3.87;;
22937;SDS011;11634;42.734;23.298;2024-01-30T08:07:47;4.00;;;2.93;;
22937;SDS011;11634;42.734;23.298;2024-01-30T08:10:14;3.50;;;2.30;;
22937;SDS011;11634;42.734;23.298;2024-01-30T08:12:40;3.77;;;3.10;;
22937;SDS011;11634;42.734;23.298;2024-01-30T08:15:06;2.57;;;1.77;;
22937;SDS011;11634;42.734;23.298;2024-01-30T08:17:33;5.17;;;3.20;;
22937;SDS011;11634;42.734;23.298;2024-01-30T08:19:59;4.70;;;2.80;;
22937;SDS011;11634;42.734;23.298;2024-01-30T08:22:25;3.57;;;2.73;;
22937;SDS011;11634;42.734;23.298;2024-01-30T08:24:50;5.33;;;3.57;;
22937;SDS011;11634;42.734;23.298;2024-01-30T08:27:16;3.43;;;1.70;;
22937;SDS011;11634;42.734;23.298;2024-01-30T08:29:42;3.87;;;3.00;;
22937;SDS011;11634;42.734;23.298;2024-01-30T08:32:07;3.17;;;2.40;;
22937;SDS011;11634;42.734;23.298;2024-01-30T08:34:33;5.03;;;3.43;;
22937;SDS011;11634;42.734;23.298;2024-01-30T08:36:59;3.43;;;1.80;;
22937;SDS011;11634;42.734;23.298;2024-01-30T08:39:24;3.23;;;1.70;;
22937;SDS011;11634;42.734;23.298;2024-01-30T08:41:50;2.83;;;1.97;;
22937;SDS011;11634;42.734;23.298;2024-01-30T08:44:16;2.97;;;2.20;;
22937;SDS011;11634;42.734;23.298;2024-01-30T08:46:43;2.70;;;1.70;;
22937;SDS011;11634;42.734;23.298;2024-01-30T08:49:11;3.57;;;1.50;;
22937;SDS011;11634;42.734;23.298;2024-01-30T08:51:40;5.53;;;2.63;;
22937;SDS011;11634;42.734;23.298;2024-01-30T08:54:06;4.63;;;2.83;;
22937;SDS011;11634;42.734;23.298;2024-01-30T08:56:32;4.63;;;2.13;;
22937;SDS011;11634;42.734;23.298;2024-01-30T08:58:58;3.40;;;2.47;;
22937;SDS011;11634;42.734;23.298;2024-01-30T09:01:24;1.60;;;1.40;;
22937;SDS011;11634;42.734;23.298;2024-01-30T09:03:50;4.13;;;2.47;;
22937;SDS011;11634;42.734;23.298;2024-01-30T09:06:16;3.60;;;2.10;;
22937;SDS011;11634;42.734;23.298;2024-01-30T09:08:42;2.70;;;2.00;;
22937;SDS011;11634;42.734;23.298;2024-01-30T09:13:42;4.17;;;2.70;;
22937;SDS011;11634;42.734;23.298;2024-01-30T09:16:08;4.23;;;2.43;;
22937;SDS011;11634;42.734;23.298;2024-01-30T09:18:34;4.40;;;2.93;;
22937;SDS011;11634;42.734;23.298;2024-01-30T09:21:00;3.63;;;2.87;;
22937;SDS011;11634;42.734;23.298;2024-01-30T09:23:27;2.17;;;1.97;;
22937;SDS011;11634;42.734;23.298;2024-01-30T09:25:53;3.83;;;2.47;;
22937;SDS011;11634;42.734;23.298;2024-01-30T09:28:19;4.40;;;3.10;;
22937;SDS011;11634;42.734;23.298;2024-01-30T09:30:44;2.37;;;1.70;;
22937;SDS011;11634;42.734;23.298;2024-01-30T09:33:10;3.53;;;2.53;;
22937;SDS011;11634;42.734;23.298;2024-01-30T09:35:36;5.30;;;2.53;;
22937;SDS011;11634;42.734;23.298;2024-01-30T09:38:02;1.50;;;1.17;;
22937;SDS011;11634;42.734;23.298;2024-01-30T09:40:28;3.30;;;2.00;;
22937;SDS011;11634;42.734;23.298;2024-01-30T09:42:54;5.03;;;2.83;;
22937;SDS011;11634;42.734;23.298;2024-01-30T09:45:23;9.57;;;3.17;;
22937;SDS011;11634;42.734;23.298;2024-01-30T09:47:50;5.07;;;2.67;;
22937;SDS011;11634;42.734;23.298;2024-01-30T09:50:16;7.03;;;2.57;;
22937;SDS011;11634;42.734;23.298;2024-01-30T09:52:43;2.73;;;2.27;;
22937;SDS011;11634;42.734;23.298;2024-01-30T09:55:09;3.27;;;2.30;;
22937;SDS011;11634;42.734;23.298;2024-01-30T09:57:35;2.17;;;1.67;;
22937;SDS011;11634;42.734;23.298;2024-01-30T10:00:02;4.07;;;2.20;;
22937;SDS011;11634;42.734;23.298;2024-01-30T10:02:37;7.17;;;2.90;;
22937;SDS011;11634;42.734;23.298;2024-01-30T10:05:04;2.63;;;1.70;;
22937;SDS011;11634;42.734;23.298;2024-01-30T10:07:31;1.90;;;1.13;;
22937;SDS011;11634;42.734;23.298;2024-01-30T10:09:56;3.73;;;2.07;;
22937;SDS011;11634;42.734;23.298;2024-01-30T10:12:22;2.93;;;2.33;;
22937;SDS011;11634;42.734;23.298;2024-01-30T10:14:52;1.97;;;1.73;;
22937;SDS011;11634;42.734;23.298;2024-01-30T10:17:17;4.90;;;2.33;;
22937;SDS011;11634;42.734;23.298;2024-01-30T10:19:43;3.20;;;2.30;;
22937;SDS011;11634;42.734;23.298;2024-01-30T10:22:09;5.50;;;2.87;;
22937;SDS011;11634;42.734;23.298;2024-01-30T10:24:34;1.33;;;1.03;;
22937;SDS011;11634;42.734;23.298;2024-01-30T10:27:01;3.10;;;1.50;;
22937;SDS011;11634;42.734;23.298;2024-01-30T10:29:27;2.57;;;1.57;;
22937;SDS011;11634;42.734;23.298;2024-01-30T10:32:00;1.90;;;1.57;;
22937;SDS011;11634;42.734;23.298;2024-01-30T10:34:33;4.00;;;2.20;;
22937;SDS011;11634;42.734;23.298;2024-01-30T10:39:31;1.90;;;1.40;;
22937;SDS011;11634;42.734;23.298;2024-01-30T10:42:03;1.70;;;1.47;;
22937;SDS011;11634;42.734;23.298;2024-01-30T10:44:36;2.00;;;1.37;;
22937;SDS011;11634;42.734;23.298;2024-01-30T10:47:10;2.53;;;1.77;;
22937;SDS011;11634;42.734;23.298;2024-01-30T10:49:39;2.40;;;1.30;;
22937;SDS011;11634;42.734;23.298;2024-01-30T10:52:08;2.10;;;1.53;;
22937;SDS011;11634;42.734;23.298;2024-01-30T10:54:35;1.93;;;1.70;;
22937;SDS011;11634;42.734;23.298;2024-01-30T10:57:02;1.77;;;1.10;;
22937;SDS011;11634;42.734;23.298;2024-01-30T10:59:30;2.67;;;1.80;;
22937;SDS011;11634;42.734;23.298;2024-01-30T11:01:57;2.43;;;1.40;;
22937;SDS011;11634;42.734;23.298;2024-01-30T11:04:24;2.57;;;2.13;;
22937;SDS011;11634;42.734;23.298;2024-01-30T11:06:50;1.00;;;0.90;;
22937;SDS011;11634;42.734;23.298;2024-01-30T11:09:17;3.30;;;1.47;;
22937;SDS011;11634;42.734;23.298;2024-01-30T11:11:56;2.00;;;1.67;;
22937;SDS011;11634;42.734;23.298;2024-01-30T11:14:31;2.97;;;1.70;;
22937;SDS011;11634;42.734;23.298;2024-01-30T11:16:57;2.50;;;2.30;;
22937;SDS011;11634;42.734;23.298;2024-01-30T11:19:27;4.60;;;2.70;;
22937;SDS011;11634;42.734;23.298;2024-01-30T11:21:56;2.83;;;2.23;;
22937;SDS011;11634;42.734;23.298;2024-01-30T11:24:22;2.67;;;1.77;;
22937;SDS011;11634;42.734;23.298;2024-01-30T11:26:49;2.67;;;1.70;;
22937;SDS011;11634;42.734;23.298;2024-01-30T11:29:29;4.10;;;2.50;;
22937;SDS011;11634;42.734;23.298;2024-01-30T11:31:56;3.03;;;2.43;;
22937;SDS011;11634;42.734;23.298;2024-01-30T11:34:24;1.80;;;1.10;;
22937;SDS011;11634;42.734;23.298;2024-01-30T11:36:57;3.67;;;2.90;;
22937;SDS011;11634;42.734;23.298;2024-01-30T11:39:25;2.60;;;1.50;;
22937;SDS011;11634;42.734;23.298;2024-01-30T11:41:52;2.13;;;1.80;;
22937;SDS011;11634;42.734;23.298;2024-01-30T11:44:21;3.23;;;2.23;;
22937;SDS011;11634;42.734;23.298;2024-01-30T11:46:48;3.27;;;2.67;;
22937;SDS011;11634;42.734;23.298;2024-01-30T11:49:15;2.00;;;1.80;;
22937;SDS011;11634;42.734;23.298;2024-01-30T11:51:42;3.50;;;2.50;;
22937;SDS011;11634;42.734;23.298;2024-01-30T11:54:10;3.20;;;2.47;;
22937;SDS011;11634;42.734;23.298;2024-01-30T11:56:36;2.53;;;1.73;;
22937;SDS011;11634;42.734;23.298;2024-01-30T11:59:03;5.40;;;3.07;;
22937;SDS011;11634;42.734;23.298;2024-01-30T12:01:30;4.37;;;2.87;;
22937;SDS011;11634;42.734;23.298;2024-01-30T12:03:57;7.57;;;3.07;;
22937;SDS011;11634;42.734;23.298;2024-01-30T12:06:24;2.93;;;2.63;;
22937;SDS011;11634;42.734;23.298;2024-01-30T12:08:59;3.83;;;3.00;;
22937;SDS011;11634;42.734;23.298;2024-01-30T12:11:26;2.13;;;1.73;;
22937;SDS011;11634;42.734;23.298;2024-01-30T12:13:53;4.57;;;2.23;;
22937;SDS011;11634;42.734;23.298;2024-01-30T12:16:19;2.57;;;2.03;;
22937;SDS011;11634;42.734;23.298;2024-01-30T12:18:46;3.93;;;2.33;;
22937;SDS011;11634;42.734;23.298;2024-01-30T12:21:11;3.73;;;2.67;;
22937;SDS011;11634;42.734;23.298;2024-01-30T12:23:37;3.40;;;2.63;;
22937;SDS011;11634;42.734;23.298;2024-01-30T12:26:03;4.30;;;2.80;;
22937;SDS011;11634;42.734;23.298;2024-01-30T12:28:32;3.77;;;2.43;;
22937;SDS011;11634;42.734;23.298;2024-01-30T12:31:03;3.67;;;2.63;;
22937;SDS011;11634;42.734;23.298;2024-01-30T12:33:29;3.23;;;2.77;;
22937;SDS011;11634;42.734;23.298;2024-01-30T12:35:57;2.00;;;1.80;;
22937;SDS011;11634;42.734;23.298;2024-01-30T12:38:26;3.33;;;2.47;;
22937;SDS011;11634;42.734;23.298;2024-01-30T12:40:55;5.73;;;3.50;;
22937;SDS011;11634;42.734;23.298;2024-01-30T12:43:22;3.47;;;2.50;;
22937;SDS011;11634;42.734;23.298;2024-01-30T12:45:49;4.20;;;3.00;;
22937;SDS011;11634;42.734;23.298;2024-01-30T12:48:15;5.27;;;3.27;;
22937;SDS011;11634;42.734;23.298;2024-01-30T12:50:41;4.10;;;3.23;;
22937;SDS011;11634;42.734;23.298;2024-01-30T12:53:07;4.40;;;2.93;;
22937;SDS011;11634;42.734;23.298;2024-01-30T12:55:34;6.57;;;3.03;;
22937;SDS011;11634;42.734;23.298;2024-01-30T12:58:00;2.10;;;1.70;;
22937;SDS011;11634;42.734;23.298;2024-01-30T13:00:26;3.30;;;2.63;;
22937;SDS011;11634;42.734;23.298;2024-01-30T13:02:52;3.77;;;3.07;;
22937;SDS011;11634;42.734;23.298;2024-01-30T13:05:18;3.70;;;2.80;;
22937;SDS011;11634;42.734;23.298;2024-01-30T13:07:46;4.47;;;3.07;;
22937;SDS011;11634;42.734;23.298;2024-01-30T13:10:12;4.37;;;2.67;;
22937;SDS011;11634;42.734;23.298;2024-01-30T13:12:38;4.93;;;2.93;;
22937;SDS011;11634;42.734;23.298;2024-01-30T13:15:04;5.10;;;3.60;;
22937;SDS011;11634;42.734;23.298;2024-01-30T13:17:30;3.40;;;2.70;;
22937;SDS011;11634;42.734;23.298;2024-01-30T13:19:59;4.67;;;3.00;;
22937;SDS011;11634;42.734;23.298;2024-01-30T13:22:25;5.37;;;3.03;;
22937;SDS011;11634;42.734;23.298;2024-01-30T13:24:51;4.00;;;3.17;;
22937;SDS011;11634;42.734;23.298;2024-01-30T13:27:16;8.23;;;2.93;;
22937;SDS011;11634;42.734;23.298;2024-01-30T13:29:43;4.70;;;3.37;;
22937;SDS011;11634;42.734;23.298;2024-01-30T13:32:08;4.60;;;3.50;;
22937;SDS011;11634;42.734;23.298;2024-01-30T13:34:34;4.27;;;2.93;;
22937;SDS011;11634;42.734;23.298;2024-01-30T13:36:59;5.57;;;3.67;;
22937;SDS011;11634;42.734;23.298;2024-01-30T13:39:25;4.70;;;2.50;;
22937;SDS011;11634;42.734;23.298;2024-01-30T13:41:51;4.20;;;2.97;;
22937;SDS011;11634;42.734;23.298;2024-01-30T13:44:17;4.37;;;3.20;;
22937;SDS011;11634;42.734;23.298;2024-01-30T13:46:43;7.77;;;4.07;;
22937;SDS011;11634;42.734;23.298;2024-01-30T13:49:09;5.07;;;2.53;;
22937;SDS011;11634;42.734;23.298;2024-01-30T13:51:37;5.93;;;3.93;;
22937;SDS011;11634;42.734;23.298;2024-01-30T13:54:03;6.43;;;3.53;;
22937;SDS011;11634;42.734;23.298;2024-01-30T13:56:29;4.73;;;3.40;;
22937;SDS011;11634;42.734;23.298;2024-01-30T13:58:55;7.13;;;3.80;;
22937;SDS011;11634;42.734;23.298;2024-01-30T14:01:22;6.53;;;3.53;;
22937;SDS011;11634;42.734;23.298;2024-01-30T14:03:50;7.70;;;3.60;;
22937;SDS011;11634;42.734;23.298;2024-01-30T14:06:16;5.03;;;3.37;;
22937;SDS011;11634;42.734;23.298;2024-01-30T14:08:42;12.87;;;2.77;;
22937;SDS011;11634;42.734;23.298;2024-01-30T14:11:08;3.97;;;2.83;;
22937;SDS011;11634;42.734;23.298;2024-01-30T14:13:34;4.80;;;3.53;;
22937;SDS011;11634;42.734;23.298;2024-01-30T14:16:00;4.50;;;3.47;;
22937;SDS011;11634;42.734;23.298;2024-01-30T14:18:26;7.97;;;4.20;;
22937;SDS011;11634;42.734;23.298;2024-01-30T14:20:52;5.10;;;3.80;;
22937;SDS011;11634;42.734;23.298;2024-01-30T14:23:18;5.57;;;3.57;;
22937;SDS011;11634;42.734;23.298;2024-01-30T14:25:43;6.47;;;3.27;;
22937;SDS011;11634;42.734;23.298;2024-01-30T14:28:09;6.97;;;4.27;;
22937;SDS011;11634;42.734;23.298;2024-01-30T14:30:35;5.10;;;3.67;;
22937;SDS011;11634;42.734;23.298;2024-01-30T14:33:01;4.27;;;2.30;;
22937;SDS011;11634;42.734;23.298;2024-01-30T14:35:27;6.57;;;3.60;;